sensor_id;sensor_type;location;lat;lon;timestamp;temperature;humidity
65470;DHT22;52067;50.710;14.492;2023-02-03T00:01:57;2.15;90.06
65470;DHT22;52067;50.710;14.492;2023-02-03T00:04:22;2.08;89.97
65470;DHT22;52067;50.710;14.492;2023-02-03T00:06:48;1.99;90.19
65470;DHT22;52067;50.710;14.492;2023-02-03T00:09:14;2.05;90.30
65470;DHT22;52067;50.710;14.492;2023-02-03T00:11:39;2.30;90.03
65470;DHT22;52067;50.710;14.492;2023-02-03T00:14:04;2.39;89.51
65470;DHT22;52067;50.710;14.492;2023-02-03T00:16:32;2.50;89.04
65470;DHT22;52067;50.710;14.492;2023-02-03T00:18:58;2.57;88.78
65470;DHT22;52067;50.710;14.492;2023-02-03T00:21:24;2.46;88.68
65470;DHT22;52067;50.710;14.492;2023-02-03T00:23:49;2.49;88.79
65470;DHT22;52067;50.710;14.492;2023-02-03T00:26:16;2.52;88.67
65470;DHT22;52067;50.710;14.492;2023-02-03T00:28:42;2.42;88.53
65470;DHT22;52067;50.710;14.492;2023-02-03T00:31:19;2.21;89.16
65470;DHT22;52067;50.710;14.492;2023-02-03T00:33:46;1.94;90.08
65470;DHT22;52067;50.710;14.492;2023-02-03T00:36:11;2.04;89.97
65470;DHT22;52067;50.710;14.492;2023-02-03T00:38:37;1.89;90.19
65470;DHT22;52067;50.710;14.492;2023-02-03T00:41:02;1.98;90.16
65470;DHT22;52067;50.710;14.492;2023-02-03T00:43:28;1.74;90.59
65470;DHT22;52067;50.710;14.492;2023-02-03T00:45:53;1.88;90.91
65470;DHT22;52067;50.710;14.492;2023-02-03T00:48:19;2.14;90.51
65470;DHT22;52067;50.710;14.492;2023-02-03T00:50:46;2.08;90.09
65470;DHT22;52067;50.710;14.492;2023-02-03T00:53:11;2.01;89.96
65470;DHT22;52067;50.710;14.492;2023-02-03T00:55:36;2.02;89.98
65470;DHT22;52067;50.710;14.492;2023-02-03T00:58:02;2.12;89.82
65470;DHT22;52067;50.710;14.492;2023-02-03T01:00:27;2.16;89.63
65470;DHT22;52067;50.710;14.492;2023-02-03T01:02:52;1.89;89.81
65470;DHT22;52067;50.710;14.492;2023-02-03T01:05:18;1.82;90.38
65470;DHT22;52067;50.710;14.492;2023-02-03T01:07:43;2.02;90.37
65470;DHT22;52067;50.710;14.492;2023-02-03T01:10:09;2.22;90.01
65470;DHT22;52067;50.710;14.492;2023-02-03T01:12:35;2.26;89.56
65470;DHT22;52067;50.710;14.492;2023-02-03T01:15:00;2.04;89.67
65470;DHT22;52067;50.710;14.492;2023-02-03T01:17:26;2.16;89.67
65470;DHT22;52067;50.710;14.492;2023-02-03T01:19:51;2.14;89.50
65470;DHT22;52067;50.710;14.492;2023-02-03T01:22:17;1.82;90.18
65470;DHT22;52067;50.710;14.492;2023-02-03T01:24:43;2.04;90.32
65470;DHT22;52067;50.710;14.492;2023-02-03T01:27:08;2.09;89.87
65470;DHT22;52067;50.710;14.492;2023-02-03T01:29:34;1.85;90.42
65470;DHT22;52067;50.710;14.492;2023-02-03T01:32:00;2.14;90.47
65470;DHT22;52067;50.710;14.492;2023-02-03T01:34:25;2.32;89.90
65470;DHT22;52067;50.710;14.492;2023-02-03T01:36:51;2.37;89.51
65470;DHT22;52067;50.710;14.492;2023-02-03T01:39:16;2.33;89.21
65470;DHT22;52067;50.710;14.492;2023-02-03T01:41:42;2.33;89.09
65470;DHT22;52067;50.710;14.492;2023-02-03T01:46:57;1.85;90.66
65470;DHT22;52067;50.710;14.492;2023-02-03T01:49:28;1.87;90.58
65470;DHT22;52067;50.710;14.492;2023-02-03T01:51:55;2.08;90.49
65470;DHT22;52067;50.710;14.492;2023-02-03T01:54:25;1.97;90.21
65470;DHT22;52067;50.710;14.492;2023-02-03T01:56:57;2.16;90.06
65470;DHT22;52067;50.710;14.492;2023-02-03T01:59:24;2.30;89.73
65470;DHT22;52067;50.710;14.492;2023-02-03T02:01:51;2.40;89.37
65470;DHT22;52067;50.710;14.492;2023-02-03T02:04:17;2.43;88.87
65470;DHT22;52067;50.710;14.492;2023-02-03T02:06:43;2.33;88.71
65470;DHT22;52067;50.710;14.492;2023-02-03T02:09:12;2.25;88.83
65470;DHT22;52067;50.710;14.492;2023-02-03T02:11:38;2.21;89.00
65470;DHT22;52067;50.710;14.492;2023-02-03T02:14:03;2.35;89.14
65470;DHT22;52067;50.710;14.492;2023-02-03T02:16:52;2.42;88.92
65470;DHT22;52067;50.710;14.492;2023-02-03T02:34:04;2.47;86.95
65470;DHT22;52067;50.710;14.492;2023-02-03T02:36:40;2.30;87.63
65470;DHT22;52067;50.710;14.492;2023-02-03T02:39:28;2.30;87.61
65470;DHT22;52067;50.710;14.492;2023-02-03T02:41:59;2.30;87.46
65470;DHT22;52067;50.710;14.492;2023-02-03T02:44:36;2.12;87.60
65470;DHT22;52067;50.710;14.492;2023-02-03T02:47:22;1.98;88.14
65470;DHT22;52067;50.710;14.492;2023-02-03T02:49:57;1.87;88.41
65470;DHT22;52067;50.710;14.492;2023-02-03T02:52:29;1.73;89.01
65470;DHT22;52067;50.710;14.492;2023-02-03T02:55:00;1.77;89.10
65470;DHT22;52067;50.710;14.492;2023-02-03T02:57:28;1.61;89.29
65470;DHT22;52067;50.710;14.492;2023-02-03T02:59:55;1.39;90.11
65470;DHT22;52067;50.710;14.492;2023-02-03T03:02:21;1.44;90.32
65470;DHT22;52067;50.710;14.492;2023-02-03T03:04:48;1.35;90.39
65470;DHT22;52067;50.710;14.492;2023-02-03T03:07:22;1.50;90.35
65470;DHT22;52067;50.710;14.492;2023-02-03T03:09:56;1.53;90.15
65470;DHT22;52067;50.710;14.492;2023-02-03T03:12:34;1.33;90.43
65470;DHT22;52067;50.710;14.492;2023-02-03T03:15:03;1.28;90.68
65470;DHT22;52067;50.710;14.492;2023-02-03T03:17:33;1.18;90.71
65470;DHT22;52067;50.710;14.492;2023-02-03T03:20:02;1.28;90.86
65470;DHT22;52067;50.710;14.492;2023-02-03T03:22:33;1.32;90.88
65470;DHT22;52067;50.710;14.492;2023-02-03T03:25:08;1.30;90.56
65470;DHT22;52067;50.710;14.492;2023-02-03T03:27:40;1.39;90.41
65470;DHT22;52067;50.710;14.492;2023-02-03T03:30:19;1.35;90.32
65470;DHT22;52067;50.710;14.492;2023-02-03T03:32:46;1.39;90.20
65470;DHT22;52067;50.710;14.492;2023-02-03T03:35:12;1.39;90.26
65470;DHT22;52067;50.710;14.492;2023-02-03T03:37:43;1.50;90.17
65470;DHT22;52067;50.710;14.492;2023-02-03T03:40:14;1.46;90.03
65470;DHT22;52067;50.710;14.492;2023-02-03T03:42:50;1.46;90.11
65470;DHT22;52067;50.710;14.492;2023-02-03T03:47:56;1.49;89.96
65470;DHT22;52067;50.710;14.492;2023-02-03T03:50:31;1.63;90.01
65470;DHT22;52067;50.710;14.492;2023-02-03T03:53:00;1.70;89.83
65470;DHT22;52067;50.710;14.492;2023-02-03T03:55:28;1.67;89.57
65470;DHT22;52067;50.710;14.492;2023-02-03T03:58:07;1.43;89.73
65470;DHT22;52067;50.710;14.492;2023-02-03T04:00:36;1.56;89.95
65470;DHT22;52067;50.710;14.492;2023-02-03T04:03:11;1.67;89.75
65470;DHT22;52067;50.710;14.492;2023-02-03T04:05:39;1.63;89.66
65470;DHT22;52067;50.710;14.492;2023-02-03T04:08:05;1.59;89.57
65470;DHT22;52067;50.710;14.492;2023-02-03T04:10:36;1.32;90.31
65470;DHT22;52067;50.710;14.492;2023-02-03T04:13:02;1.51;90.22
65470;DHT22;52067;50.710;14.492;2023-02-03T04:15:29;1.57;89.93
65470;DHT22;52067;50.710;14.492;2023-02-03T04:17:55;1.60;89.69
65470;DHT22;52067;50.710;14.492;2023-02-03T04:20:22;1.49;89.82
65470;DHT22;52067;50.710;14.492;2023-02-03T04:22:47;1.51;90.30
65470;DHT22;52067;50.710;14.492;2023-02-03T04:25:12;1.61;89.93
65470;DHT22;52067;50.710;14.492;2023-02-03T04:27:38;1.39;90.21
65470;DHT22;52067;50.710;14.492;2023-02-03T04:30:04;1.53;90.13
65470;DHT22;52067;50.710;14.492;2023-02-03T04:32:30;1.33;90.11
65470;DHT22;52067;50.710;14.492;2023-02-03T04:34:56;1.26;90.78
65470;DHT22;52067;50.710;14.492;2023-02-03T04:37:22;1.37;90.71
65470;DHT22;52067;50.710;14.492;2023-02-03T04:39:48;1.36;90.43
65470;DHT22;52067;50.710;14.492;2023-02-03T04:42:16;1.30;90.37
65470;DHT22;52067;50.710;14.492;2023-02-03T04:44:41;1.37;90.49
65470;DHT22;52067;50.710;14.492;2023-02-03T04:47:07;1.42;90.28
65470;DHT22;52067;50.710;14.492;2023-02-03T04:49:32;1.28;90.50
65470;DHT22;52067;50.710;14.492;2023-02-03T04:51:57;1.12;91.13
65470;DHT22;52067;50.710;14.492;2023-02-03T04:54:23;1.35;90.97
65470;DHT22;52067;50.710;14.492;2023-02-03T04:56:48;1.22;90.93
65470;DHT22;52067;50.710;14.492;2023-02-03T04:59:13;1.03;91.06
65470;DHT22;52067;50.710;14.492;2023-02-03T05:01:39;1.26;91.34
65470;DHT22;52067;50.710;14.492;2023-02-03T05:04:04;1.26;91.24
65470;DHT22;52067;50.710;14.492;2023-02-03T05:06:30;1.53;90.92
65470;DHT22;52067;50.710;14.492;2023-02-03T05:08:57;1.67;90.36
65470;DHT22;52067;50.710;14.492;2023-02-03T05:11:23;1.39;90.17
65470;DHT22;52067;50.710;14.492;2023-02-03T05:13:48;1.40;90.50
65470;DHT22;52067;50.710;14.492;2023-02-03T05:16:14;1.63;90.33
65470;DHT22;52067;50.710;14.492;2023-02-03T05:18:39;1.37;90.06
65470;DHT22;52067;50.710;14.492;2023-02-03T05:21:05;1.42;90.24
65470;DHT22;52067;50.710;14.492;2023-02-03T05:23:31;1.57;90.19
65470;DHT22;52067;50.710;14.492;2023-02-03T05:25:56;1.63;90.07
65470;DHT22;52067;50.710;14.492;2023-02-03T05:28:22;1.18;90.38
65470;DHT22;52067;50.710;14.492;2023-02-03T05:30:47;1.13;91.41
65470;DHT22;52067;50.710;14.492;2023-02-03T05:33:12;0.87;91.51
65470;DHT22;52067;50.710;14.492;2023-02-03T05:35:38;0.92;91.82
65470;DHT22;52067;50.710;14.492;2023-02-03T05:38:03;0.87;91.82
65470;DHT22;52067;50.710;14.492;2023-02-03T05:40:29;0.96;91.90
65470;DHT22;52067;50.710;14.492;2023-02-03T05:43:13;1.05;91.58
65470;DHT22;52067;50.710;14.492;2023-02-03T05:45:39;0.99;91.51
65470;DHT22;52067;50.710;14.492;2023-02-03T05:48:04;1.00;91.66
65470;DHT22;52067;50.710;14.492;2023-02-03T05:50:32;1.28;91.53
65470;DHT22;52067;50.710;14.492;2023-02-03T05:53:02;0.93;91.27
65470;DHT22;52067;50.710;14.492;2023-02-03T05:55:28;1.19;91.48
65470;DHT22;52067;50.710;14.492;2023-02-03T05:57:54;1.09;91.26
65470;DHT22;52067;50.710;14.492;2023-02-03T06:00:20;1.06;91.25
65470;DHT22;52067;50.710;14.492;2023-02-03T06:02:54;1.02;91.40
65470;DHT22;52067;50.710;14.492;2023-02-03T06:05:20;1.02;91.53
65470;DHT22;52067;50.710;14.492;2023-02-03T06:07:46;0.91;91.73
65470;DHT22;52067;50.710;14.492;2023-02-03T06:10:12;0.96;91.80
65470;DHT22;52067;50.710;14.492;2023-02-03T06:12:37;0.95;91.67
65470;DHT22;52067;50.710;14.492;2023-02-03T06:15:03;0.96;91.67
65470;DHT22;52067;50.710;14.492;2023-02-03T06:17:29;1.00;91.72
65470;DHT22;52067;50.710;14.492;2023-02-03T06:19:54;1.03;91.69
65470;DHT22;52067;50.710;14.492;2023-02-03T06:22:20;1.16;91.71
65470;DHT22;52067;50.710;14.492;2023-02-03T06:24:45;1.03;91.59
65470;DHT22;52067;50.710;14.492;2023-02-03T06:27:13;1.05;91.77
65470;DHT22;52067;50.710;14.492;2023-02-03T06:29:38;1.02;91.69
65470;DHT22;52067;50.710;14.492;2023-02-03T06:32:04;0.92;91.95
65470;DHT22;52067;50.710;14.492;2023-02-03T06:34:29;1.08;91.85
65470;DHT22;52067;50.710;14.492;2023-02-03T06:36:54;1.18;91.65
65470;DHT22;52067;50.710;14.492;2023-02-03T06:39:20;1.12;91.48
65470;DHT22;52067;50.710;14.492;2023-02-03T06:41:45;1.37;91.37
65470;DHT22;52067;50.710;14.492;2023-02-03T06:44:11;1.53;91.09
65470;DHT22;52067;50.710;14.492;2023-02-03T06:46:36;1.33;90.74
65470;DHT22;52067;50.710;14.492;2023-02-03T06:49:01;1.56;90.80
65470;DHT22;52067;50.710;14.492;2023-02-03T06:51:27;1.68;90.65
65470;DHT22;52067;50.710;14.492;2023-02-03T06:53:52;1.80;90.37
65470;DHT22;52067;50.710;14.492;2023-02-03T06:56:18;1.33;90.39
65470;DHT22;52067;50.710;14.492;2023-02-03T06:58:43;0.99;91.10
65470;DHT22;52067;50.710;14.492;2023-02-03T07:01:08;1.02;91.46
65470;DHT22;52067;50.710;14.492;2023-02-03T07:03:34;0.96;91.80
65470;DHT22;52067;50.710;14.492;2023-02-03T07:05:59;1.10;91.66
65470;DHT22;52067;50.710;14.492;2023-02-03T07:08:24;1.08;91.53
65470;DHT22;52067;50.710;14.492;2023-02-03T07:10:53;1.25;91.41
65470;DHT22;52067;50.710;14.492;2023-02-03T07:13:19;1.29;91.22
65470;DHT22;52067;50.710;14.492;2023-02-03T07:15:44;1.09;91.25
65470;DHT22;52067;50.710;14.492;2023-02-03T07:18:10;1.28;91.42
65470;DHT22;52067;50.710;14.492;2023-02-03T07:20:35;1.33;91.27
65470;DHT22;52067;50.710;14.492;2023-02-03T07:23:00;1.37;91.03
65470;DHT22;52067;50.710;14.492;2023-02-03T07:25:26;1.49;90.90
65470;DHT22;52067;50.710;14.492;2023-02-03T07:27:52;1.51;90.78
65470;DHT22;52067;50.710;14.492;2023-02-03T07:30:18;1.40;90.62
65470;DHT22;52067;50.710;14.492;2023-02-03T07:32:48;1.42;90.71
65470;DHT22;52067;50.710;14.492;2023-02-03T07:35:14;1.39;91.25
65470;DHT22;52067;50.710;14.492;2023-02-03T07:37:40;1.47;90.98
65470;DHT22;52067;50.710;14.492;2023-02-03T07:40:06;1.39;90.77
65470;DHT22;52067;50.710;14.492;2023-02-03T07:42:31;1.47;90.93
65470;DHT22;52067;50.710;14.492;2023-02-03T07:44:56;1.53;90.64
65470;DHT22;52067;50.710;14.492;2023-02-03T07:47:22;1.44;90.72
65470;DHT22;52067;50.710;14.492;2023-02-03T07:49:47;1.57;90.76
65470;DHT22;52067;50.710;14.492;2023-02-03T07:52:12;1.63;90.51
65470;DHT22;52067;50.710;14.492;2023-02-03T07:54:38;1.84;90.31
65470;DHT22;52067;50.710;14.492;2023-02-03T07:57:03;1.64;90.03
65470;DHT22;52067;50.710;14.492;2023-02-03T07:59:29;1.64;90.46
65470;DHT22;52067;50.710;14.492;2023-02-03T08:01:54;1.74;90.61
65470;DHT22;52067;50.710;14.492;2023-02-03T08:04:21;1.78;90.18
65470;DHT22;52067;50.710;14.492;2023-02-03T08:06:46;1.70;90.30
65470;DHT22;52067;50.710;14.492;2023-02-03T08:09:12;1.53;90.61
65470;DHT22;52067;50.710;14.492;2023-02-03T08:11:37;1.53;90.40
65470;DHT22;52067;50.710;14.492;2023-02-03T08:14:03;1.60;90.57
65470;DHT22;52067;50.710;14.492;2023-02-03T08:16:28;1.51;90.40
65470;DHT22;52067;50.710;14.492;2023-02-03T08:18:54;1.77;90.56
65470;DHT22;52067;50.710;14.492;2023-02-03T08:21:19;1.56;90.65
65470;DHT22;52067;50.710;14.492;2023-02-03T08:23:45;1.75;90.60
65470;DHT22;52067;50.710;14.492;2023-02-03T08:26:10;1.89;90.42
65470;DHT22;52067;50.710;14.492;2023-02-03T08:28:35;1.93;90.56
65470;DHT22;52067;50.710;14.492;2023-02-03T08:31:01;2.11;90.66
65470;DHT22;52067;50.710;14.492;2023-02-03T08:33:26;3.14;91.75
65470;DHT22;52067;50.710;14.492;2023-02-03T08:35:52;3.58;91.64
65470;DHT22;52067;50.710;14.492;2023-02-03T08:38:18;3.95;91.11
65470;DHT22;52067;50.710;14.492;2023-02-03T08:40:46;4.20;90.05
65470;DHT22;52067;50.710;14.492;2023-02-03T08:43:11;4.32;89.36
65470;DHT22;52067;50.710;14.492;2023-02-03T08:45:38;4.49;89.08
65470;DHT22;52067;50.710;14.492;2023-02-03T08:48:04;4.59;89.00
65470;DHT22;52067;50.710;14.492;2023-02-03T08:50:29;4.58;88.64
65470;DHT22;52067;50.710;14.492;2023-02-03T08:52:55;4.48;89.19
65470;DHT22;52067;50.710;14.492;2023-02-03T08:55:20;4.38;89.00
65470;DHT22;52067;50.710;14.492;2023-02-03T08:57:46;4.48;89.07
65470;DHT22;52067;50.710;14.492;2023-02-03T09:00:11;4.32;88.88
65470;DHT22;52067;50.710;14.492;2023-02-03T09:02:37;4.35;89.10
65470;DHT22;52067;50.710;14.492;2023-02-03T09:05:03;4.25;89.22
65470;DHT22;52067;50.710;14.492;2023-02-03T09:07:28;4.21;89.32
65470;DHT22;52067;50.710;14.492;2023-02-03T09:09:53;4.22;89.41
65470;DHT22;52067;50.710;14.492;2023-02-03T09:12:19;4.15;89.53
65470;DHT22;52067;50.710;14.492;2023-02-03T09:14:44;4.17;89.69
65470;DHT22;52067;50.710;14.492;2023-02-03T09:17:10;4.13;89.86
65470;DHT22;52067;50.710;14.492;2023-02-03T09:19:36;4.15;89.93
65470;DHT22;52067;50.710;14.492;2023-02-03T09:22:01;4.11;89.95
65470;DHT22;52067;50.710;14.492;2023-02-03T09:24:27;4.11;90.01
65470;DHT22;52067;50.710;14.492;2023-02-03T09:26:52;4.30;90.16
65470;DHT22;52067;50.710;14.492;2023-02-03T09:29:19;4.35;89.77
65470;DHT22;52067;50.710;14.492;2023-02-03T09:31:44;4.40;89.78
65470;DHT22;52067;50.710;14.492;2023-02-03T09:34:12;4.45;89.61
65470;DHT22;52067;50.710;14.492;2023-02-03T09:36:37;4.53;89.35
65470;DHT22;52067;50.710;14.492;2023-02-03T09:39:03;4.45;88.67
65470;DHT22;52067;50.710;14.492;2023-02-03T09:44:08;4.61;89.38
65470;DHT22;52067;50.710;14.492;2023-02-03T09:46:40;4.89;88.65
65470;DHT22;52067;50.710;14.492;2023-02-03T09:49:15;4.93;88.10
65470;DHT22;52067;50.710;14.492;2023-02-03T09:51:51;4.86;88.00
65470;DHT22;52067;50.710;14.492;2023-02-03T09:54:22;4.96;88.10
65470;DHT22;52067;50.710;14.492;2023-02-03T09:56:51;4.92;88.27
65470;DHT22;52067;50.710;14.492;2023-02-03T09:59:22;4.89;88.11
65470;DHT22;52067;50.710;14.492;2023-02-03T10:04:44;4.96;88.47
65470;DHT22;52067;50.710;14.492;2023-02-03T10:07:14;5.03;88.13
65470;DHT22;52067;50.710;14.492;2023-02-03T10:12:48;5.04;88.50
65470;DHT22;52067;50.710;14.492;2023-02-03T10:18:00;5.09;88.24
65470;DHT22;52067;50.710;14.492;2023-02-03T10:20:46;5.09;88.14
65470;DHT22;52067;50.710;14.492;2023-02-03T10:23:23;5.04;88.30
65470;DHT22;52067;50.710;14.492;2023-02-03T10:25:52;5.00;88.59
65470;DHT22;52067;50.710;14.492;2023-02-03T10:28:30;5.07;88.61
65470;DHT22;52067;50.710;14.492;2023-02-03T10:31:00;5.07;88.48
65470;DHT22;52067;50.710;14.492;2023-02-03T10:33:30;5.20;88.64
65470;DHT22;52067;50.710;14.492;2023-02-03T10:36:19;5.14;88.41
65470;DHT22;52067;50.710;14.492;2023-02-03T10:42:16;5.23;88.38
65470;DHT22;52067;50.710;14.492;2023-02-03T10:44:52;5.35;88.40
65470;DHT22;52067;50.710;14.492;2023-02-03T10:47:40;5.27;88.61
65470;DHT22;52067;50.710;14.492;2023-02-03T10:52:45;5.27;88.64
65470;DHT22;52067;50.710;14.492;2023-02-03T10:55:31;5.38;88.24
65470;DHT22;52067;50.710;14.492;2023-02-03T10:57:57;5.41;88.48
65470;DHT22;52067;50.710;14.492;2023-02-03T11:00:31;5.48;87.86
65470;DHT22;52067;50.710;14.492;2023-02-03T11:03:07;5.38;88.52
65470;DHT22;52067;50.710;14.492;2023-02-03T11:05:34;5.51;88.26
65470;DHT22;52067;50.710;14.492;2023-02-03T11:08:00;5.54;88.14
65470;DHT22;52067;50.710;14.492;2023-02-03T11:13:19;5.50;88.16
65470;DHT22;52067;50.710;14.492;2023-02-03T11:16:06;5.55;88.35
65470;DHT22;52067;50.710;14.492;2023-02-03T11:18:36;5.50;88.70
65470;DHT22;52067;50.710;14.492;2023-02-03T11:21:16;5.48;88.57
65470;DHT22;52067;50.710;14.492;2023-02-03T11:23:48;5.63;87.76
65470;DHT22;52067;50.710;14.492;2023-02-03T11:26:15;5.71;87.44
65470;DHT22;52067;50.710;14.492;2023-02-03T11:28:45;5.63;88.31
65470;DHT22;52067;50.710;14.492;2023-02-03T11:31:22;5.68;88.24
65470;DHT22;52067;50.710;14.492;2023-02-03T11:34:01;5.66;88.35
65470;DHT22;52067;50.710;14.492;2023-02-03T11:36:30;5.58;88.87
65470;DHT22;52067;50.710;14.492;2023-02-03T11:39:18;5.52;89.01
65470;DHT22;52067;50.710;14.492;2023-02-03T11:41:45;5.54;88.96
65470;DHT22;52067;50.710;14.492;2023-02-03T11:44:20;5.58;89.05
65470;DHT22;52067;50.710;14.492;2023-02-03T11:46:49;5.62;88.78
65470;DHT22;52067;50.710;14.492;2023-02-03T11:49:32;5.71;88.79
65470;DHT22;52067;50.710;14.492;2023-02-03T12:00:29;6.05;87.76
65470;DHT22;52067;50.710;14.492;2023-02-03T12:03:17;6.10;87.68
65470;DHT22;52067;50.710;14.492;2023-02-03T12:11:03;6.58;85.76
65470;DHT22;52067;50.710;14.492;2023-02-03T12:16:45;6.52;86.06
65470;DHT22;52067;50.710;14.492;2023-02-03T12:22:09;6.74;86.13
65470;DHT22;52067;50.710;14.492;2023-02-03T12:24:58;6.88;85.13
65470;DHT22;52067;50.710;14.492;2023-02-03T12:30:12;6.93;84.38
65470;DHT22;52067;50.710;14.492;2023-02-03T12:32:47;7.02;83.35
65470;DHT22;52067;50.710;14.492;2023-02-03T12:37:49;7.19;81.92
65470;DHT22;52067;50.710;14.492;2023-02-03T12:40:35;7.24;82.18
65470;DHT22;52067;50.710;14.492;2023-02-03T12:43:16;7.29;81.39
65470;DHT22;52067;50.710;14.492;2023-02-03T12:45:59;7.33;81.13
65470;DHT22;52067;50.710;14.492;2023-02-03T12:51:17;7.31;80.84
65470;DHT22;52067;50.710;14.492;2023-02-03T12:53:52;7.26;80.21
65470;DHT22;52067;50.710;14.492;2023-02-03T12:56:24;7.20;80.45
65470;DHT22;52067;50.710;14.492;2023-02-03T12:59:03;7.22;80.99
65470;DHT22;52067;50.710;14.492;2023-02-03T13:01:36;7.12;80.68
65470;DHT22;52067;50.710;14.492;2023-02-03T13:04:20;7.12;80.94
65470;DHT22;52067;50.710;14.492;2023-02-03T13:11:57;6.68;84.25
65470;DHT22;52067;50.710;14.492;2023-02-03T13:14:35;6.44;85.71
65470;DHT22;52067;50.710;14.492;2023-02-03T13:17:28;6.30;85.88
65470;DHT22;52067;50.710;14.492;2023-02-03T13:20:10;6.19;86.15
65470;DHT22;52067;50.710;14.492;2023-02-03T13:22:38;6.13;87.17
65470;DHT22;52067;50.710;14.492;2023-02-03T13:44:38;6.03;89.28
65470;DHT22;52067;50.710;14.492;2023-02-03T13:47:04;6.14;88.69
65470;DHT22;52067;50.710;14.492;2023-02-03T13:49:32;6.09;89.34
65470;DHT22;52067;50.710;14.492;2023-02-03T13:51:58;6.11;89.81
65470;DHT22;52067;50.710;14.492;2023-02-03T13:57:01;5.99;89.41
65470;DHT22;52067;50.710;14.492;2023-02-03T15:40:22;5.07;78.79
65470;DHT22;52067;50.710;14.492;2023-02-03T15:43:01;5.14;78.31
65470;DHT22;52067;50.710;14.492;2023-02-03T16:19:29;4.79;81.97
65470;DHT22;52067;50.710;14.492;2023-02-03T16:21:57;4.90;81.66
65470;DHT22;52067;50.710;14.492;2023-02-03T16:30:33;5.04;82.04
65470;DHT22;52067;50.710;14.492;2023-02-03T16:33:13;5.14;81.42
65470;DHT22;52067;50.710;14.492;2023-02-03T16:36:02;5.26;80.91
65470;DHT22;52067;50.710;14.492;2023-02-03T16:38:51;5.32;80.40
65470;DHT22;52067;50.710;14.492;2023-02-03T16:41:35;5.38;80.29
65470;DHT22;52067;50.710;14.492;2023-02-03T16:44:20;5.37;80.90
65470;DHT22;52067;50.710;14.492;2023-02-03T16:47:24;5.41;79.91
65470;DHT22;52067;50.710;14.492;2023-02-03T16:50:19;5.48;79.36
65470;DHT22;52067;50.710;14.492;2023-02-03T16:53:04;5.50;79.60
65470;DHT22;52067;50.710;14.492;2023-02-03T16:55:29;5.52;79.85
65470;DHT22;52067;50.710;14.492;2023-02-03T16:57:54;5.56;78.77
65470;DHT22;52067;50.710;14.492;2023-02-03T17:00:21;5.61;78.73
65470;DHT22;52067;50.710;14.492;2023-02-03T17:02:48;5.62;78.88
65470;DHT22;52067;50.710;14.492;2023-02-03T17:05:14;5.58;79.18
65470;DHT22;52067;50.710;14.492;2023-02-03T17:07:40;5.55;79.15
65470;DHT22;52067;50.710;14.492;2023-02-03T17:10:05;5.65;77.54
65470;DHT22;52067;50.710;14.492;2023-02-03T17:12:32;5.73;77.10
65470;DHT22;52067;50.710;14.492;2023-02-03T17:14:58;5.72;77.25
65470;DHT22;52067;50.710;14.492;2023-02-03T17:17:23;5.75;76.43
65470;DHT22;52067;50.710;14.492;2023-02-03T17:19:49;5.82;76.26
65470;DHT22;52067;50.710;14.492;2023-02-03T17:22:14;5.71;77.14
65470;DHT22;52067;50.710;14.492;2023-02-03T17:24:40;5.72;76.27
65470;DHT22;52067;50.710;14.492;2023-02-03T17:27:05;5.78;75.65
65470;DHT22;52067;50.710;14.492;2023-02-03T17:29:30;5.75;76.19
65470;DHT22;52067;50.710;14.492;2023-02-03T17:31:56;5.81;75.96
65470;DHT22;52067;50.710;14.492;2023-02-03T17:45:02;5.45;76.88
65470;DHT22;52067;50.710;14.492;2023-02-03T17:47:28;5.50;76.32
65470;DHT22;52067;50.710;14.492;2023-02-03T17:49:53;5.54;76.72
65470;DHT22;52067;50.710;14.492;2023-02-03T17:52:19;5.65;75.58
65470;DHT22;52067;50.710;14.492;2023-02-03T17:54:47;5.66;75.22
65470;DHT22;52067;50.710;14.492;2023-02-03T17:57:13;5.68;75.15
65470;DHT22;52067;50.710;14.492;2023-02-03T17:59:38;5.71;75.12
65470;DHT22;52067;50.710;14.492;2023-02-03T18:02:04;5.66;75.54
65470;DHT22;52067;50.710;14.492;2023-02-03T18:04:30;5.71;74.33
65470;DHT22;52067;50.710;14.492;2023-02-03T18:06:55;5.69;74.62
65470;DHT22;52067;50.710;14.492;2023-02-03T18:09:20;5.62;75.57
65470;DHT22;52067;50.710;14.492;2023-02-03T18:11:46;5.54;75.91
65470;DHT22;52067;50.710;14.492;2023-02-03T18:14:13;5.51;76.32
65470;DHT22;52067;50.710;14.492;2023-02-03T18:16:42;5.58;74.80
65470;DHT22;52067;50.710;14.492;2023-02-03T18:19:11;5.72;72.94
65470;DHT22;52067;50.710;14.492;2023-02-03T18:21:39;5.73;73.58
65470;DHT22;52067;50.710;14.492;2023-02-03T18:24:05;5.72;73.88
65470;DHT22;52067;50.710;14.492;2023-02-03T18:26:33;5.69;74.12
65470;DHT22;52067;50.710;14.492;2023-02-03T18:29:02;5.78;73.66
65470;DHT22;52067;50.710;14.492;2023-02-03T18:31:28;5.82;73.68
65470;DHT22;52067;50.710;14.492;2023-02-03T18:33:53;5.82;73.27
65470;DHT22;52067;50.710;14.492;2023-02-03T18:36:19;5.82;73.59
65470;DHT22;52067;50.710;14.492;2023-02-03T18:38:45;5.76;73.22
65470;DHT22;52067;50.710;14.492;2023-02-03T18:41:17;5.75;73.23
65470;DHT22;52067;50.710;14.492;2023-02-03T18:43:43;5.68;73.12
65470;DHT22;52067;50.710;14.492;2023-02-03T18:46:19;5.69;72.80
65470;DHT22;52067;50.710;14.492;2023-02-03T18:48:45;5.75;72.21
65470;DHT22;52067;50.710;14.492;2023-02-03T18:51:13;5.89;71.24
65470;DHT22;52067;50.710;14.492;2023-02-03T18:53:42;5.82;71.42
65470;DHT22;52067;50.710;14.492;2023-02-03T18:56:15;5.78;71.32
65470;DHT22;52067;50.710;14.492;2023-02-03T18:58:41;5.76;70.72
65470;DHT22;52067;50.710;14.492;2023-02-03T19:01:06;5.73;71.06
65470;DHT22;52067;50.710;14.492;2023-02-03T19:03:33;5.73;71.16
65470;DHT22;52067;50.710;14.492;2023-02-03T19:05:58;5.75;70.12
65470;DHT22;52067;50.710;14.492;2023-02-03T19:08:24;5.76;70.75
65470;DHT22;52067;50.710;14.492;2023-02-03T19:10:53;5.73;70.97
65470;DHT22;52067;50.710;14.492;2023-02-03T19:13:19;5.71;70.02
65470;DHT22;52067;50.710;14.492;2023-02-03T19:15:46;5.71;70.38
65470;DHT22;52067;50.710;14.492;2023-02-03T19:18:12;5.69;70.14
65470;DHT22;52067;50.710;14.492;2023-02-03T19:20:38;5.66;70.69
65470;DHT22;52067;50.710;14.492;2023-02-03T19:23:04;5.61;71.76
65470;DHT22;52067;50.710;14.492;2023-02-03T19:25:34;5.40;73.17
65470;DHT22;52067;50.710;14.492;2023-02-03T19:27:59;5.35;72.39
65470;DHT22;52067;50.710;14.492;2023-02-03T19:30:29;5.41;72.09
65470;DHT22;52067;50.710;14.492;2023-02-03T19:32:55;5.47;71.76
65470;DHT22;52067;50.710;14.492;2023-02-03T19:35:20;5.47;72.67
65470;DHT22;52067;50.710;14.492;2023-02-03T19:37:46;5.50;72.81
65470;DHT22;52067;50.710;14.492;2023-02-03T19:40:11;5.51;72.47
65470;DHT22;52067;50.710;14.492;2023-02-03T19:42:37;5.45;72.57
65470;DHT22;52067;50.710;14.492;2023-02-03T19:45:03;5.44;73.04
65470;DHT22;52067;50.710;14.492;2023-02-03T19:47:29;5.37;73.72